Girona, Spain

1:25 AM CEST on August 03, 2015 (GMT +0200)
Salitja - Mas Bes | | Change Station
CLOSE
Current Station
Personal Weather Station
Location: Vilobi d'Onyar, CT
Elevation: 279 ft
Nearby Weather Stations

Elev 279 ft 41.91 °N, 2.74 °E | Updated 4 minutes ago

Clear
Clear
70.7 °F
Feels Like 70 °F
N
0.0
Wind Variable Wind from SSE
Gusts 0.0 mph

Today
High -- | Low -- °F
--% Chance of Precip.
Yesterday
High -- | Low -- °F
Precip. -- in
6:44 AM 9:05 PM
Waning Gibbous, 91% visible
Pressure 30.04 in
Visibility -9999.0 miles
Clouds
Heat Index 70 °F
Dew Point 65 °F
Humidity 83%
Rainfall 0.00 in
Snow Depth Not available.
UV Not available.
Pollen Not available.
Air Quality Not available.
Flu Activity Not available.
METAR LEGE 022300Z 26001KT CAVOK 21/19 Q1017

More Conditions Fewer Conditions

Pressure 30.04 in
Visibility -9999.0 miles
Clouds
Heat Index 70 °F
Dew Point 65 °F
Humidity 83%
Rainfall 0.00 in
Snow Depth Not available.
UV Not available.
Pollen Not available.
Air Quality Not available.
Flu Activity Not available.
METAR LEGE 022300Z 26001KT CAVOK 21/19 Q1017

More Conditions Fewer Conditions

10-Day Weather Forecast

×

Almanac

Astronomy

Aug. 03, 2015 Rise Set
Actual Time
Civil Twilight
Nautical Twilight
Astronomical Twilight
Moon
Length of Visible Light
Length of Day
Tomorrow will be .
, % of the Moon is Illuminated

Today's Extremes

Country Highs Country Lows

Community

WunderPhotos

Upload Photos

1,843,408 photos uploaded!

WunderBlogs® & News

Nearby

Air Quality

  Air Quality AQ Index Pollutant
Not available.

Snow Depth

Station Depth Elevation

Earthquake Activity

City Distance Mag. Time & Date
Minimum magnitude displayed is 2.5.

Coastal Water Temperatures

Place Temperature

Stations

Nearby Weather Stations

Station Location Temp. Windchill Dew Point Humidity Wind Precip. Elev Updated Type